sensor_id;sensor_type;location;lat;lon;timestamp;P1;durP1;ratioP1;P2;durP2;ratioP2
62679;SDS011;68213;40.528;44.712;2023-05-07T00:00:51;7.88;;;1.60;;
62679;SDS011;68213;40.528;44.712;2023-05-07T00:01:52;6.07;;;1.33;;
62679;SDS011;68213;40.528;44.712;2023-05-07T00:02:53;8.15;;;1.63;;
62679;SDS011;68213;40.528;44.712;2023-05-07T00:03:54;5.35;;;1.65;;
62679;SDS011;68213;40.528;44.712;2023-05-07T00:04:54;6.38;;;1.30;;
62679;SDS011;68213;40.528;44.712;2023-05-07T00:05:55;4.03;;;1.35;;
62679;SDS011;68213;40.528;44.712;2023-05-07T00:06:56;6.93;;;1.70;;
62679;SDS011;68213;40.528;44.712;2023-05-07T00:07:56;8.43;;;1.40;;
62679;SDS011;68213;40.528;44.712;2023-05-07T00:08:58;7.57;;;1.60;;
62679;SDS011;68213;40.528;44.712;2023-05-07T00:09:59;3.60;;;1.50;;
62679;SDS011;68213;40.528;44.712;2023-05-07T00:10:59;8.52;;;1.40;;
62679;SDS011;68213;40.528;44.712;2023-05-07T00:12:00;7.15;;;2.10;;
62679;SDS011;68213;40.528;44.712;2023-05-07T00:13:01;4.57;;;1.33;;
62679;SDS011;68213;40.528;44.712;2023-05-07T00:14:01;7.60;;;1.60;;
62679;SDS011;68213;40.528;44.712;2023-05-07T00:15:02;9.95;;;1.60;;
62679;SDS011;68213;40.528;44.712;2023-05-07T00:16:04;5.72;;;2.30;;
62679;SDS011;68213;40.528;44.712;2023-05-07T00:17:05;4.72;;;1.30;;
62679;SDS011;68213;40.528;44.712;2023-05-07T00:18:06;7.97;;;1.42;;
62679;SDS011;68213;40.528;44.712;2023-05-07T00:19:09;7.55;;;1.60;;
62679;SDS011;68213;40.528;44.712;2023-05-07T00:20:10;6.68;;;1.50;;
62679;SDS011;68213;40.528;44.712;2023-05-07T00:21:11;6.38;;;1.40;;
62679;SDS011;68213;40.528;44.712;2023-05-07T00:22:12;3.67;;;1.30;;
62679;SDS011;68213;40.528;44.712;2023-05-07T00:23:12;6.28;;;1.63;;
62679;SDS011;68213;40.528;44.712;2023-05-07T00:24:13;5.88;;;1.33;;
62679;SDS011;68213;40.528;44.712;2023-05-07T00:25:13;5.50;;;1.77;;
62679;SDS011;68213;40.528;44.712;2023-05-07T00:26:14;5.70;;;1.55;;
62679;SDS011;68213;40.528;44.712;2023-05-07T00:27:16;5.45;;;1.48;;
62679;SDS011;68213;40.528;44.712;2023-05-07T00:28:16;4.80;;;1.50;;
62679;SDS011;68213;40.528;44.712;2023-05-07T00:29:17;6.18;;;1.67;;
62679;SDS011;68213;40.528;44.712;2023-05-07T00:30:18;8.57;;;1.40;;
62679;SDS011;68213;40.528;44.712;2023-05-07T00:31:21;3.53;;;1.30;;
62679;SDS011;68213;40.528;44.712;2023-05-07T00:32:22;4.72;;;1.67;;
62679;SDS011;68213;40.528;44.712;2023-05-07T00:33:23;5.00;;;1.50;;
62679;SDS011;68213;40.528;44.712;2023-05-07T00:34:23;6.93;;;1.20;;
62679;SDS011;68213;40.528;44.712;2023-05-07T00:35:24;4.55;;;1.30;;
62679;SDS011;68213;40.528;44.712;2023-05-07T00:36:25;7.47;;;1.27;;
62679;SDS011;68213;40.528;44.712;2023-05-07T00:37:26;4.63;;;1.20;;
62679;SDS011;68213;40.528;44.712;2023-05-07T00:38:27;3.50;;;1.50;;
62679;SDS011;68213;40.528;44.712;2023-05-07T00:39:27;12.85;;;1.65;;
62679;SDS011;68213;40.528;44.712;2023-05-07T00:40:28;5.13;;;1.50;;
62679;SDS011;68213;40.528;44.712;2023-05-07T00:41:29;4.40;;;1.10;;
62679;SDS011;68213;40.528;44.712;2023-05-07T00:42:32;8.48;;;1.40;;
62679;SDS011;68213;40.528;44.712;2023-05-07T00:43:33;7.40;;;1.40;;
62679;SDS011;68213;40.528;44.712;2023-05-07T00:44:34;8.40;;;1.60;;
62679;SDS011;68213;40.528;44.712;2023-05-07T00:45:34;5.85;;;1.15;;
62679;SDS011;68213;40.528;44.712;2023-05-07T00:46:35;8.45;;;1.30;;
62679;SDS011;68213;40.528;44.712;2023-05-07T00:47:36;11.93;;;1.63;;
62679;SDS011;68213;40.528;44.712;2023-05-07T00:48:37;7.63;;;1.33;;
62679;SDS011;68213;40.528;44.712;2023-05-07T00:49:38;7.72;;;1.52;;
62679;SDS011;68213;40.528;44.712;2023-05-07T00:50:41;5.03;;;1.20;;
62679;SDS011;68213;40.528;44.712;2023-05-07T00:51:42;4.32;;;1.40;;
62679;SDS011;68213;40.528;44.712;2023-05-07T00:52:42;4.43;;;1.17;;
62679;SDS011;68213;40.528;44.712;2023-05-07T00:53:43;8.02;;;1.48;;
62679;SDS011;68213;40.528;44.712;2023-05-07T00:54:45;8.10;;;1.48;;
62679;SDS011;68213;40.528;44.712;2023-05-07T00:55:46;4.20;;;1.50;;
62679;SDS011;68213;40.528;44.712;2023-05-07T00:56:46;9.18;;;1.30;;
62679;SDS011;68213;40.528;44.712;2023-05-07T00:57:47;5.75;;;1.83;;
62679;SDS011;68213;40.528;44.712;2023-05-07T00:58:49;4.38;;;1.30;;
62679;SDS011;68213;40.528;44.712;2023-05-07T00:59:50;9.10;;;1.63;;
62679;SDS011;68213;40.528;44.712;2023-05-07T01:00:52;5.80;;;1.25;;
62679;SDS011;68213;40.528;44.712;2023-05-07T01:01:52;4.03;;;1.00;;
62679;SDS011;68213;40.528;44.712;2023-05-07T01:02:53;3.78;;;0.90;;
62679;SDS011;68213;40.528;44.712;2023-05-07T01:03:54;4.13;;;1.50;;
62679;SDS011;68213;40.528;44.712;2023-05-07T01:04:57;7.60;;;1.73;;
62679;SDS011;68213;40.528;44.712;2023-05-07T01:05:58;3.78;;;1.20;;
62679;SDS011;68213;40.528;44.712;2023-05-07T01:07:00;5.95;;;1.35;;
62679;SDS011;68213;40.528;44.712;2023-05-07T01:08:02;9.50;;;1.50;;
62679;SDS011;68213;40.528;44.712;2023-05-07T01:09:05;4.28;;;1.58;;
62679;SDS011;68213;40.528;44.712;2023-05-07T01:10:06;8.40;;;1.70;;
62679;SDS011;68213;40.528;44.712;2023-05-07T01:11:07;5.35;;;1.33;;
62679;SDS011;68213;40.528;44.712;2023-05-07T01:12:09;6.00;;;1.85;;
62679;SDS011;68213;40.528;44.712;2023-05-07T01:13:11;10.93;;;1.63;;
62679;SDS011;68213;40.528;44.712;2023-05-07T01:14:13;10.02;;;1.58;;
62679;SDS011;68213;40.528;44.712;2023-05-07T01:15:13;5.13;;;1.60;;
62679;SDS011;68213;40.528;44.712;2023-05-07T01:16:14;7.65;;;1.30;;
62679;SDS011;68213;40.528;44.712;2023-05-07T01:17:15;5.07;;;1.13;;
62679;SDS011;68213;40.528;44.712;2023-05-07T01:18:19;3.60;;;1.30;;
62679;SDS011;68213;40.528;44.712;2023-05-07T01:19:20;5.18;;;1.40;;
62679;SDS011;68213;40.528;44.712;2023-05-07T01:20:21;7.30;;;1.67;;
62679;SDS011;68213;40.528;44.712;2023-05-07T01:21:25;5.70;;;1.48;;
62679;SDS011;68213;40.528;44.712;2023-05-07T01:22:30;8.02;;;1.42;;
62679;SDS011;68213;40.528;44.712;2023-05-07T01:23:32;7.85;;;1.60;;
62679;SDS011;68213;40.528;44.712;2023-05-07T01:24:36;4.93;;;1.40;;
62679;SDS011;68213;40.528;44.712;2023-05-07T01:25:37;3.90;;;1.20;;
62679;SDS011;68213;40.528;44.712;2023-05-07T01:26:39;7.38;;;1.50;;
62679;SDS011;68213;40.528;44.712;2023-05-07T01:27:43;6.57;;;2.03;;
62679;SDS011;68213;40.528;44.712;2023-05-07T01:28:43;7.30;;;1.48;;
62679;SDS011;68213;40.528;44.712;2023-05-07T01:29:45;3.75;;;1.52;;
62679;SDS011;68213;40.528;44.712;2023-05-07T01:30:47;4.10;;;1.58;;
62679;SDS011;68213;40.528;44.712;2023-05-07T01:31:51;6.68;;;1.40;;
62679;SDS011;68213;40.528;44.712;2023-05-07T01:33:03;6.55;;;1.40;;
62679;SDS011;68213;40.528;44.712;2023-05-07T01:34:08;6.90;;;1.50;;
62679;SDS011;68213;40.528;44.712;2023-05-07T01:35:14;9.13;;;1.40;;
62679;SDS011;68213;40.528;44.712;2023-05-07T01:36:18;7.18;;;1.50;;
62679;SDS011;68213;40.528;44.712;2023-05-07T01:37:21;2.70;;;0.93;;
62679;SDS011;68213;40.528;44.712;2023-05-07T01:38:23;4.05;;;1.33;;
62679;SDS011;68213;40.528;44.712;2023-05-07T01:39:24;6.68;;;1.40;;
62679;SDS011;68213;40.528;44.712;2023-05-07T01:40:26;5.35;;;1.35;;
62679;SDS011;68213;40.528;44.712;2023-05-07T01:41:27;4.80;;;1.40;;
62679;SDS011;68213;40.528;44.712;2023-05-07T01:42:28;5.93;;;1.38;;
62679;SDS011;68213;40.528;44.712;2023-05-07T01:43:31;4.25;;;1.33;;
62679;SDS011;68213;40.528;44.712;2023-05-07T01:44:32;4.53;;;1.33;;
62679;SDS011;68213;40.528;44.712;2023-05-07T01:45:33;7.65;;;1.30;;
62679;SDS011;68213;40.528;44.712;2023-05-07T01:46:35;7.05;;;1.50;;
62679;SDS011;68213;40.528;44.712;2023-05-07T01:47:37;3.83;;;1.60;;
62679;SDS011;68213;40.528;44.712;2023-05-07T01:48:39;7.43;;;1.27;;
62679;SDS011;68213;40.528;44.712;2023-05-07T01:49:41;9.57;;;2.22;;
62679;SDS011;68213;40.528;44.712;2023-05-07T01:50:42;9.50;;;1.80;;
62679;SDS011;68213;40.528;44.712;2023-05-07T01:51:44;4.45;;;1.60;;
62679;SDS011;68213;40.528;44.712;2023-05-07T01:52:45;3.72;;;1.08;;
62679;SDS011;68213;40.528;44.712;2023-05-07T01:53:47;4.18;;;1.83;;
62679;SDS011;68213;40.528;44.712;2023-05-07T01:54:50;4.00;;;1.35;;
62679;SDS011;68213;40.528;44.712;2023-05-07T01:55:51;5.05;;;1.20;;
62679;SDS011;68213;40.528;44.712;2023-05-07T01:56:52;4.28;;;1.25;;
62679;SDS011;68213;40.528;44.712;2023-05-07T01:57:52;7.10;;;1.55;;
62679;SDS011;68213;40.528;44.712;2023-05-07T01:58:53;3.22;;;1.08;;
62679;SDS011;68213;40.528;44.712;2023-05-07T01:59:53;4.30;;;1.38;;
62679;SDS011;68213;40.528;44.712;2023-05-07T02:00:54;9.23;;;1.65;;
62679;SDS011;68213;40.528;44.712;2023-05-07T02:01:55;7.85;;;1.50;;
62679;SDS011;68213;40.528;44.712;2023-05-07T02:02:55;5.13;;;1.20;;
62679;SDS011;68213;40.528;44.712;2023-05-07T02:03:56;5.45;;;1.50;;
62679;SDS011;68213;40.528;44.712;2023-05-07T02:04:57;5.05;;;1.60;;
62679;SDS011;68213;40.528;44.712;2023-05-07T02:05:58;7.03;;;1.27;;
62679;SDS011;68213;40.528;44.712;2023-05-07T02:06:58;7.28;;;2.38;;
62679;SDS011;68213;40.528;44.712;2023-05-07T02:07:59;5.70;;;1.40;;
62679;SDS011;68213;40.528;44.712;2023-05-07T02:09:00;7.80;;;1.45;;
62679;SDS011;68213;40.528;44.712;2023-05-07T02:10:00;5.63;;;1.55;;
62679;SDS011;68213;40.528;44.712;2023-05-07T02:11:02;8.18;;;1.42;;
62679;SDS011;68213;40.528;44.712;2023-05-07T02:12:02;3.83;;;1.30;;
62679;SDS011;68213;40.528;44.712;2023-05-07T02:13:03;6.90;;;1.27;;
62679;SDS011;68213;40.528;44.712;2023-05-07T02:14:04;4.45;;;1.30;;
62679;SDS011;68213;40.528;44.712;2023-05-07T02:15:05;5.18;;;1.77;;
62679;SDS011;68213;40.528;44.712;2023-05-07T02:16:06;10.60;;;1.45;;
62679;SDS011;68213;40.528;44.712;2023-05-07T02:17:10;3.92;;;1.25;;
62679;SDS011;68213;40.528;44.712;2023-05-07T02:18:10;10.93;;;1.60;;
62679;SDS011;68213;40.528;44.712;2023-05-07T02:19:11;3.50;;;1.17;;
62679;SDS011;68213;40.528;44.712;2023-05-07T02:20:15;6.25;;;1.40;;
62679;SDS011;68213;40.528;44.712;2023-05-07T02:21:35;3.65;;;1.20;;
62679;SDS011;68213;40.528;44.712;2023-05-07T02:22:36;6.50;;;1.50;;
62679;SDS011;68213;40.528;44.712;2023-05-07T02:23:37;7.53;;;1.25;;
62679;SDS011;68213;40.528;44.712;2023-05-07T02:24:37;6.03;;;1.75;;
62679;SDS011;68213;40.528;44.712;2023-05-07T02:25:38;5.53;;;1.67;;
62679;SDS011;68213;40.528;44.712;2023-05-07T02:26:42;3.90;;;1.25;;
62679;SDS011;68213;40.528;44.712;2023-05-07T02:27:42;5.57;;;1.30;;
62679;SDS011;68213;40.528;44.712;2023-05-07T02:28:43;9.23;;;1.60;;
62679;SDS011;68213;40.528;44.712;2023-05-07T02:29:44;6.97;;;1.77;;
62679;SDS011;68213;40.528;44.712;2023-05-07T02:30:44;6.32;;;1.60;;
62679;SDS011;68213;40.528;44.712;2023-05-07T02:31:45;5.25;;;0.95;;
62679;SDS011;68213;40.528;44.712;2023-05-07T02:32:46;2.95;;;1.15;;
62679;SDS011;68213;40.528;44.712;2023-05-07T02:33:46;7.20;;;1.17;;
62679;SDS011;68213;40.528;44.712;2023-05-07T02:34:49;7.20;;;1.55;;
62679;SDS011;68213;40.528;44.712;2023-05-07T02:35:51;4.30;;;1.20;;
62679;SDS011;68213;40.528;44.712;2023-05-07T02:36:52;4.03;;;1.30;;
62679;SDS011;68213;40.528;44.712;2023-05-07T02:37:52;3.85;;;1.35;;
62679;SDS011;68213;40.528;44.712;2023-05-07T02:38:53;9.23;;;1.70;;
62679;SDS011;68213;40.528;44.712;2023-05-07T02:39:54;10.30;;;1.63;;
62679;SDS011;68213;40.528;44.712;2023-05-07T02:40:54;4.95;;;1.20;;
62679;SDS011;68213;40.528;44.712;2023-05-07T02:41:55;4.03;;;1.20;;
62679;SDS011;68213;40.528;44.712;2023-05-07T02:42:56;4.13;;;1.30;;
62679;SDS011;68213;40.528;44.712;2023-05-07T02:43:56;4.72;;;1.20;;
62679;SDS011;68213;40.528;44.712;2023-05-07T02:46:04;6.20;;;1.17;;
62679;SDS011;68213;40.528;44.712;2023-05-07T02:47:06;3.97;;;1.35;;
62679;SDS011;68213;40.528;44.712;2023-05-07T02:48:11;6.55;;;1.40;;
62679;SDS011;68213;40.528;44.712;2023-05-07T02:49:12;6.15;;;1.38;;
62679;SDS011;68213;40.528;44.712;2023-05-07T02:50:12;4.85;;;1.10;;
62679;SDS011;68213;40.528;44.712;2023-05-07T02:51:13;8.30;;;1.42;;
62679;SDS011;68213;40.528;44.712;2023-05-07T02:52:14;5.60;;;1.63;;
62679;SDS011;68213;40.528;44.712;2023-05-07T02:53:14;6.68;;;1.30;;
62679;SDS011;68213;40.528;44.712;2023-05-07T02:54:15;6.18;;;1.50;;
62679;SDS011;68213;40.528;44.712;2023-05-07T02:55:16;4.85;;;1.35;;
62679;SDS011;68213;40.528;44.712;2023-05-07T02:56:16;8.15;;;2.10;;
62679;SDS011;68213;40.528;44.712;2023-05-07T02:57:17;6.22;;;1.40;;
62679;SDS011;68213;40.528;44.712;2023-05-07T02:58:18;4.85;;;1.33;;
62679;SDS011;68213;40.528;44.712;2023-05-07T02:59:18;9.98;;;1.40;;
62679;SDS011;68213;40.528;44.712;2023-05-07T03:00:19;7.60;;;1.55;;
62679;SDS011;68213;40.528;44.712;2023-05-07T03:01:21;7.10;;;1.58;;
62679;SDS011;68213;40.528;44.712;2023-05-07T03:02:21;9.77;;;1.85;;
62679;SDS011;68213;40.528;44.712;2023-05-07T03:03:22;8.32;;;1.50;;
62679;SDS011;68213;40.528;44.712;2023-05-07T03:04:23;4.53;;;1.30;;
62679;SDS011;68213;40.528;44.712;2023-05-07T03:05:24;6.78;;;2.22;;
62679;SDS011;68213;40.528;44.712;2023-05-07T03:06:24;8.00;;;1.73;;
62679;SDS011;68213;40.528;44.712;2023-05-07T03:07:26;5.45;;;1.15;;
62679;SDS011;68213;40.528;44.712;2023-05-07T03:08:26;4.25;;;1.38;;
62679;SDS011;68213;40.528;44.712;2023-05-07T03:09:27;4.43;;;1.25;;
62679;SDS011;68213;40.528;44.712;2023-05-07T03:10:28;6.93;;;1.80;;
62679;SDS011;68213;40.528;44.712;2023-05-07T03:11:28;7.95;;;1.85;;
62679;SDS011;68213;40.528;44.712;2023-05-07T03:12:29;7.15;;;1.52;;
62679;SDS011;68213;40.528;44.712;2023-05-07T03:13:31;8.10;;;1.60;;
62679;SDS011;68213;40.528;44.712;2023-05-07T03:14:32;7.82;;;1.50;;
62679;SDS011;68213;40.528;44.712;2023-05-07T03:15:32;6.38;;;1.60;;
62679;SDS011;68213;40.528;44.712;2023-05-07T03:16:33;12.25;;;1.60;;
62679;SDS011;68213;40.528;44.712;2023-05-07T03:17:34;16.27;;;1.77;;
62679;SDS011;68213;40.528;44.712;2023-05-07T03:18:34;9.45;;;1.63;;
62679;SDS011;68213;40.528;44.712;2023-05-07T03:19:35;8.23;;;1.60;;
62679;SDS011;68213;40.528;44.712;2023-05-07T03:20:36;8.02;;;1.65;;
62679;SDS011;68213;40.528;44.712;2023-05-07T03:21:36;7.22;;;1.42;;
62679;SDS011;68213;40.528;44.712;2023-05-07T03:22:37;9.90;;;1.83;;
62679;SDS011;68213;40.528;44.712;2023-05-07T03:23:38;7.15;;;1.42;;
62679;SDS011;68213;40.528;44.712;2023-05-07T03:24:41;6.35;;;1.45;;
62679;SDS011;68213;40.528;44.712;2023-05-07T03:25:42;4.63;;;1.40;;
62679;SDS011;68213;40.528;44.712;2023-05-07T03:26:42;9.27;;;1.50;;
62679;SDS011;68213;40.528;44.712;2023-05-07T03:27:43;9.40;;;2.13;;
62679;SDS011;68213;40.528;44.712;2023-05-07T03:28:44;6.97;;;1.30;;
62679;SDS011;68213;40.528;44.712;2023-05-07T03:29:44;6.18;;;1.70;;
62679;SDS011;68213;40.528;44.712;2023-05-07T03:30:45;16.42;;;1.80;;
62679;SDS011;68213;40.528;44.712;2023-05-07T03:31:46;5.60;;;1.42;;
62679;SDS011;68213;40.528;44.712;2023-05-07T03:32:46;8.65;;;1.45;;
62679;SDS011;68213;40.528;44.712;2023-05-07T03:33:53;5.05;;;1.42;;
62679;SDS011;68213;40.528;44.712;2023-05-07T03:34:56;8.90;;;1.48;;
62679;SDS011;68213;40.528;44.712;2023-05-07T03:35:57;2.42;;;1.25;;
62679;SDS011;68213;40.528;44.712;2023-05-07T03:36:57;5.78;;;1.60;;
62679;SDS011;68213;40.528;44.712;2023-05-07T03:37:58;6.50;;;1.50;;
62679;SDS011;68213;40.528;44.712;2023-05-07T03:38:59;8.30;;;1.33;;
62679;SDS011;68213;40.528;44.712;2023-05-07T03:40:00;3.97;;;1.45;;
62679;SDS011;68213;40.528;44.712;2023-05-07T03:41:00;12.55;;;2.50;;
62679;SDS011;68213;40.528;44.712;2023-05-07T03:42:01;15.13;;;1.80;;
62679;SDS011;68213;40.528;44.712;2023-05-07T03:43:02;11.95;;;1.85;;
62679;SDS011;68213;40.528;44.712;2023-05-07T03:44:03;4.78;;;1.30;;
62679;SDS011;68213;40.528;44.712;2023-05-07T03:45:04;8.55;;;1.42;;
62679;SDS011;68213;40.528;44.712;2023-05-07T03:46:05;5.50;;;1.65;;
62679;SDS011;68213;40.528;44.712;2023-05-07T03:47:06;7.32;;;1.40;;
62679;SDS011;68213;40.528;44.712;2023-05-07T03:48:10;4.13;;;1.52;;
62679;SDS011;68213;40.528;44.712;2023-05-07T03:49:10;4.85;;;1.55;;
62679;SDS011;68213;40.528;44.712;2023-05-07T03:50:11;3.75;;;1.20;;
62679;SDS011;68213;40.528;44.712;2023-05-07T03:51:11;5.25;;;1.48;;
62679;SDS011;68213;40.528;44.712;2023-05-07T03:52:14;6.88;;;1.65;;
62679;SDS011;68213;40.528;44.712;2023-05-07T03:53:15;9.85;;;1.63;;
62679;SDS011;68213;40.528;44.712;2023-05-07T03:54:16;6.95;;;1.38;;
62679;SDS011;68213;40.528;44.712;2023-05-07T03:55:16;7.40;;;1.52;;
62679;SDS011;68213;40.528;44.712;2023-05-07T03:56:18;8.45;;;1.48;;
62679;SDS011;68213;40.528;44.712;2023-05-07T03:57:19;5.65;;;1.33;;
62679;SDS011;68213;40.528;44.712;2023-05-07T03:58:20;5.70;;;1.40;;
62679;SDS011;68213;40.528;44.712;2023-05-07T03:59:22;5.70;;;1.27;;
62679;SDS011;68213;40.528;44.712;2023-05-07T04:00:24;8.45;;;1.25;;
62679;SDS011;68213;40.528;44.712;2023-05-07T04:01:24;6.45;;;1.50;;
62679;SDS011;68213;40.528;44.712;2023-05-07T04:02:25;8.52;;;1.60;;
62679;SDS011;68213;40.528;44.712;2023-05-07T04:03:26;6.70;;;1.42;;
62679;SDS011;68213;40.528;44.712;2023-05-07T04:04:26;7.97;;;1.60;;
62679;SDS011;68213;40.528;44.712;2023-05-07T04:05:27;5.97;;;1.63;;
62679;SDS011;68213;40.528;44.712;2023-05-07T04:06:30;4.93;;;1.30;;
62679;SDS011;68213;40.528;44.712;2023-05-07T04:07:31;7.93;;;1.35;;
62679;SDS011;68213;40.528;44.712;2023-05-07T04:08:31;5.97;;;1.40;;
62679;SDS011;68213;40.528;44.712;2023-05-07T04:09:32;6.03;;;1.30;;
62679;SDS011;68213;40.528;44.712;2023-05-07T04:10:33;15.18;;;2.00;;
62679;SDS011;68213;40.528;44.712;2023-05-07T04:11:34;14.20;;;3.15;;
62679;SDS011;68213;40.528;44.712;2023-05-07T04:12:35;7.47;;;1.50;;
62679;SDS011;68213;40.528;44.712;2023-05-07T04:13:36;7.22;;;1.45;;
62679;SDS011;68213;40.528;44.712;2023-05-07T04:14:37;10.00;;;1.83;;
62679;SDS011;68213;40.528;44.712;2023-05-07T04:15:37;3.10;;;1.42;;
62679;SDS011;68213;40.528;44.712;2023-05-07T04:16:38;5.97;;;1.85;;
62679;SDS011;68213;40.528;44.712;2023-05-07T04:17:39;9.23;;;1.50;;
62679;SDS011;68213;40.528;44.712;2023-05-07T04:18:39;6.32;;;1.33;;
62679;SDS011;68213;40.528;44.712;2023-05-07T04:19:40;4.68;;;1.35;;
62679;SDS011;68213;40.528;44.712;2023-05-07T04:20:45;6.35;;;1.23;;
62679;SDS011;68213;40.528;44.712;2023-05-07T04:21:45;5.60;;;1.45;;
62679;SDS011;68213;40.528;44.712;2023-05-07T04:22:46;8.73;;;1.50;;
62679;SDS011;68213;40.528;44.712;2023-05-07T04:23:47;6.60;;;1.50;;
62679;SDS011;68213;40.528;44.712;2023-05-07T04:24:48;7.22;;;1.38;;
62679;SDS011;68213;40.528;44.712;2023-05-07T04:25:50;4.45;;;1.45;;
62679;SDS011;68213;40.528;44.712;2023-05-07T04:26:50;8.50;;;1.85;;
62679;SDS011;68213;40.528;44.712;2023-05-07T04:27:52;6.25;;;1.77;;
62679;SDS011;68213;40.528;44.712;2023-05-07T04:28:53;6.97;;;1.50;;
62679;SDS011;68213;40.528;44.712;2023-05-07T04:29:54;8.00;;;1.50;;
62679;SDS011;68213;40.528;44.712;2023-05-07T04:30:55;3.10;;;1.40;;
62679;SDS011;68213;40.528;44.712;2023-05-07T04:31:56;7.30;;;1.63;;
62679;SDS011;68213;40.528;44.712;2023-05-07T04:32:58;7.25;;;1.40;;
62679;SDS011;68213;40.528;44.712;2023-05-07T04:33:59;3.17;;;1.45;;
62679;SDS011;68213;40.528;44.712;2023-05-07T04:35:00;9.10;;;1.73;;
62679;SDS011;68213;40.528;44.712;2023-05-07T04:36:03;8.00;;;1.70;;
62679;SDS011;68213;40.528;44.712;2023-05-07T04:37:05;8.68;;;1.70;;
62679;SDS011;68213;40.528;44.712;2023-05-07T04:38:05;6.85;;;1.33;;
62679;SDS011;68213;40.528;44.712;2023-05-07T04:39:06;9.32;;;1.80;;
62679;SDS011;68213;40.528;44.712;2023-05-07T04:40:07;7.82;;;1.70;;
62679;SDS011;68213;40.528;44.712;2023-05-07T04:41:08;7.25;;;1.45;;
62679;SDS011;68213;40.528;44.712;2023-05-07T04:42:09;14.73;;;2.22;;
62679;SDS011;68213;40.528;44.712;2023-05-07T04:43:15;12.43;;;1.70;;
62679;SDS011;68213;40.528;44.712;2023-05-07T04:44:17;11.30;;;1.48;;
62679;SDS011;68213;40.528;44.712;2023-05-07T04:45:17;6.68;;;1.67;;
62679;SDS011;68213;40.528;44.712;2023-05-07T04:46:18;3.95;;;1.23;;
62679;SDS011;68213;40.528;44.712;2023-05-07T04:47:19;7.07;;;1.80;;
62679;SDS011;68213;40.528;44.712;2023-05-07T04:48:19;8.27;;;1.42;;
62679;SDS011;68213;40.528;44.712;2023-05-07T04:49:20;8.43;;;1.90;;
62679;SDS011;68213;40.528;44.712;2023-05-07T04:50:21;10.82;;;2.10;;
62679;SDS011;68213;40.528;44.712;2023-05-07T04:51:24;4.60;;;1.52;;
62679;SDS011;68213;40.528;44.712;2023-05-07T04:52:25;6.97;;;1.58;;
62679;SDS011;68213;40.528;44.712;2023-05-07T04:53:26;12.40;;;1.83;;
62679;SDS011;68213;40.528;44.712;2023-05-07T04:54:29;8.52;;;1.42;;
62679;SDS011;68213;40.528;44.712;2023-05-07T04:55:30;6.45;;;1.67;;
62679;SDS011;68213;40.528;44.712;2023-05-07T04:56:31;17.33;;;1.80;;
62679;SDS011;68213;40.528;44.712;2023-05-07T04:57:31;8.93;;;2.00;;
62679;SDS011;68213;40.528;44.712;2023-05-07T04:58:32;7.03;;;1.70;;
62679;SDS011;68213;40.528;44.712;2023-05-07T04:59:33;5.55;;;1.88;;
62679;SDS011;68213;40.528;44.712;2023-05-07T05:00:34;5.78;;;1.55;;
62679;SDS011;68213;40.528;44.712;2023-05-07T05:01:35;12.10;;;1.88;;
62679;SDS011;68213;40.528;44.712;2023-05-07T05:02:35;14.27;;;2.35;;
62679;SDS011;68213;40.528;44.712;2023-05-07T05:03:39;8.88;;;1.90;;
62679;SDS011;68213;40.528;44.712;2023-05-07T05:04:42;6.15;;;2.20;;
62679;SDS011;68213;40.528;44.712;2023-05-07T05:05:43;6.35;;;2.10;;
62679;SDS011;68213;40.528;44.712;2023-05-07T05:06:44;10.25;;;1.85;;
62679;SDS011;68213;40.528;44.712;2023-05-07T05:07:44;11.48;;;2.03;;
62679;SDS011;68213;40.528;44.712;2023-05-07T05:08:45;5.28;;;1.80;;
62679;SDS011;68213;40.528;44.712;2023-05-07T05:09:46;7.30;;;2.05;;
62679;SDS011;68213;40.528;44.712;2023-05-07T05:10:46;6.72;;;2.10;;
62679;SDS011;68213;40.528;44.712;2023-05-07T05:11:48;8.15;;;1.60;;
62679;SDS011;68213;40.528;44.712;2023-05-07T05:12:49;13.25;;;1.67;;
62679;SDS011;68213;40.528;44.712;2023-05-07T05:13:50;6.10;;;1.65;;
62679;SDS011;68213;40.528;44.712;2023-05-07T05:14:51;7.20;;;1.80;;
62679;SDS011;68213;40.528;44.712;2023-05-07T05:15:51;10.55;;;2.15;;
62679;SDS011;68213;40.528;44.712;2023-05-07T05:16:52;9.45;;;2.20;;
62679;SDS011;68213;40.528;44.712;2023-05-07T05:17:52;5.70;;;1.40;;
62679;SDS011;68213;40.528;44.712;2023-05-07T05:18:53;6.65;;;1.48;;
62679;SDS011;68213;40.528;44.712;2023-05-07T05:19:54;6.30;;;2.03;;
62679;SDS011;68213;40.528;44.712;2023-05-07T05:20:55;11.85;;;1.60;;
62679;SDS011;68213;40.528;44.712;2023-05-07T05:21:56;14.45;;;2.10;;
62679;SDS011;68213;40.528;44.712;2023-05-07T05:22:56;9.48;;;2.00;;
62679;SDS011;68213;40.528;44.712;2023-05-07T05:23:57;18.80;;;2.58;;
62679;SDS011;68213;40.528;44.712;2023-05-07T05:24:58;18.75;;;2.70;;
62679;SDS011;68213;40.528;44.712;2023-05-07T05:25:59;18.23;;;4.45;;
62679;SDS011;68213;40.528;44.712;2023-05-07T05:26:59;20.92;;;4.28;;
62679;SDS011;68213;40.528;44.712;2023-05-07T05:28:02;17.23;;;3.85;;
62679;SDS011;68213;40.528;44.712;2023-05-07T05:29:03;12.68;;;3.78;;
62679;SDS011;68213;40.528;44.712;2023-05-07T05:30:04;11.43;;;3.70;;
62679;SDS011;68213;40.528;44.712;2023-05-07T05:31:05;11.80;;;3.33;;
62679;SDS011;68213;40.528;44.712;2023-05-07T05:32:09;9.38;;;2.90;;
62679;SDS011;68213;40.528;44.712;2023-05-07T05:33:10;7.78;;;2.67;;
62679;SDS011;68213;40.528;44.712;2023-05-07T05:34:11;11.43;;;3.33;;
62679;SDS011;68213;40.528;44.712;2023-05-07T05:35:12;9.70;;;2.72;;
62679;SDS011;68213;40.528;44.712;2023-05-07T05:36:12;9.25;;;3.08;;
62679;SDS011;68213;40.528;44.712;2023-05-07T05:37:13;12.38;;;3.45;;
62679;SDS011;68213;40.528;44.712;2023-05-07T05:38:14;12.63;;;2.90;;
62679;SDS011;68213;40.528;44.712;2023-05-07T05:39:15;9.88;;;3.35;;
62679;SDS011;68213;40.528;44.712;2023-05-07T05:40:15;12.93;;;3.03;;
62679;SDS011;68213;40.528;44.712;2023-05-07T05:41:16;9.68;;;2.70;;
62679;SDS011;68213;40.528;44.712;2023-05-07T05:42:17;11.07;;;3.10;;
62679;SDS011;68213;40.528;44.712;2023-05-07T05:43:17;13.68;;;2.80;;
62679;SDS011;68213;40.528;44.712;2023-05-07T05:44:18;20.67;;;3.30;;
62679;SDS011;68213;40.528;44.712;2023-05-07T05:45:18;13.40;;;3.20;;
62679;SDS011;68213;40.528;44.712;2023-05-07T05:46:19;12.27;;;3.05;;
62679;SDS011;68213;40.528;44.712;2023-05-07T05:47:20;19.85;;;3.03;;
62679;SDS011;68213;40.528;44.712;2023-05-07T05:48:20;13.38;;;3.03;;
62679;SDS011;68213;40.528;44.712;2023-05-07T05:49:21;17.15;;;3.15;;
62679;SDS011;68213;40.528;44.712;2023-05-07T05:50:24;13.75;;;2.67;;
62679;SDS011;68213;40.528;44.712;2023-05-07T05:51:25;11.95;;;2.70;;
62679;SDS011;68213;40.528;44.712;2023-05-07T05:52:26;9.10;;;2.38;;
62679;SDS011;68213;40.528;44.712;2023-05-07T05:53:27;12.68;;;2.28;;
62679;SDS011;68213;40.528;44.712;2023-05-07T05:54:31;11.80;;;2.78;;
62679;SDS011;68213;40.528;44.712;2023-05-07T05:55:31;14.88;;;2.75;;
62679;SDS011;68213;40.528;44.712;2023-05-07T05:56:32;13.45;;;2.22;;
62679;SDS011;68213;40.528;44.712;2023-05-07T05:57:33;5.03;;;1.52;;
62679;SDS011;68213;40.528;44.712;2023-05-07T05:58:34;8.73;;;1.63;;
62679;SDS011;68213;40.528;44.712;2023-05-07T05:59:35;11.10;;;1.92;;
62679;SDS011;68213;40.528;44.712;2023-05-07T06:00:35;8.65;;;2.40;;
62679;SDS011;68213;40.528;44.712;2023-05-07T06:01:36;15.98;;;2.60;;
62679;SDS011;68213;40.528;44.712;2023-05-07T06:02:37;7.25;;;2.30;;
62679;SDS011;68213;40.528;44.712;2023-05-07T06:03:37;11.48;;;1.98;;
62679;SDS011;68213;40.528;44.712;2023-05-07T06:04:41;13.40;;;1.77;;